This is the latest recevied weather packets stored in our database for station/object DL8BNG-13. If no packets are shown the sender has not sent any weather packets the latest 10 day(s).
| Time | Temp. | Humidity | Pressure | Rain* | Wind** | Luminosity | Snow |
|---|---|---|---|---|---|---|---|
| 1788147002 | 16.11° C | 88% | - | 3.56 mm | - | - | - |
| 1788146102 | 16.11° C | 88% | - | 3.56 mm | - | - | - |
| 1788115503 | 21.67° C | 52% | - | 0 mm | - | - | - |
| 1788103802 | 26.11° C | 35% | - | 0 mm | - | - | - |
| 1788101102 | 26.67° C | 35% | - | 0 mm | - | - | - |
| 1788100202 | 26.67° C | 34% | - | 0 mm | - | - | - |
| 1788099302 | 26.67° C | 35% | - | 0 mm | - | - | - |
| 1788098402 | 26.11° C | 35% | - | 0 mm | - | - | - |
| 1788093002 | 26.11° C | 36% | - | 0 mm | - | - | - |
| 1788092102 | 26.11° C | 37% | - | 0 mm | - | - | - |
| 1788091203 | 26.11° C | 36% | - | 0 mm | - | - | - |
| 1788089403 | 25.56° C | 38% | - | 0 mm | - | - | - |
| 1788088502 | 25° C | 39% | - | 0 mm | - | - | - |
| 1788087603 | 25° C | 40% | - | 0 mm | - | - | - |
| 1788086702 | 25° C | 40% | - | 0 mm | - | - | - |
| 1788085802 | 25° C | 41% | - | 0 mm | - | - | - |
| 1788084902 | 25° C | 41% | - | 0 mm | - | - | - |
| 1788084002 | 25° C | 40% | - | 0 mm | - | - | - |
| 1788083102 | 24.44° C | 41% | - | 0 mm | - | - | - |
| 1788082203 | 23.89° C | 42% | - | 0 mm | - | - | - |
| 1788081302 | 23.33° C | 43% | - | 0 mm | - | - | - |
| 1788080402 | 23.33° C | 46% | - | 0 mm | - | - | - |
| 1788079503 | 22.78° C | 46% | - | 0 mm | - | - | - |
| 1788078602 | 22.78° C | 47% | - | 0 mm | - | - | - |
| 1788077703 | 22.22° C | 48% | - | 0 mm | - | - | - |
* Rain since midnight (hover to see other rain measurements)
** Current wind speed in m/s (hover to see current wind gust speed)